sensor_id;sensor_type;location;lat;lon;timestamp;temperature;humidity
8872;DHT22;4472;52.092;9.820;2023-02-28T00:01:33;1.20;99.90
8872;DHT22;4472;52.092;9.820;2023-02-28T00:04:20;1.00;99.90
8872;DHT22;4472;52.092;9.820;2023-02-28T00:07:07;0.90;99.90
8872;DHT22;4472;52.092;9.820;2023-02-28T00:09:54;1.00;99.90
8872;DHT22;4472;52.092;9.820;2023-02-28T00:12:42;1.00;99.90
8872;DHT22;4472;52.092;9.820;2023-02-28T00:15:30;1.00;99.90
8872;DHT22;4472;52.092;9.820;2023-02-28T00:18:17;0.90;99.90
8872;DHT22;4472;52.092;9.820;2023-02-28T00:21:04;0.90;99.90
8872;DHT22;4472;52.092;9.820;2023-02-28T00:23:52;0.80;99.90
8872;DHT22;4472;52.092;9.820;2023-02-28T00:26:39;0.80;99.90
8872;DHT22;4472;52.092;9.820;2023-02-28T00:29:27;1.00;99.90
8872;DHT22;4472;52.092;9.820;2023-02-28T00:32:14;0.50;99.90
8872;DHT22;4472;52.092;9.820;2023-02-28T00:35:02;0.50;99.90
8872;DHT22;4472;52.092;9.820;2023-02-28T00:37:49;0.40;99.90
8872;DHT22;4472;52.092;9.820;2023-02-28T00:40:36;0.30;99.90
8872;DHT22;4472;52.092;9.820;2023-02-28T00:43:23;0.30;99.90
8872;DHT22;4472;52.092;9.820;2023-02-28T00:46:12;0.30;99.90
8872;DHT22;4472;52.092;9.820;2023-02-28T00:48:59;0.10;99.90
8872;DHT22;4472;52.092;9.820;2023-02-28T00:51:46;0.10;99.90
8872;DHT22;4472;52.092;9.820;2023-02-28T00:54:34;0.10;99.90
8872;DHT22;4472;52.092;9.820;2023-02-28T00:57:21;0.30;99.90
8872;DHT22;4472;52.092;9.820;2023-02-28T01:00:09;0.00;99.90
8872;DHT22;4472;52.092;9.820;2023-02-28T01:02:58;0.00;99.90
8872;DHT22;4472;52.092;9.820;2023-02-28T01:05:46;0.00;99.90
8872;DHT22;4472;52.092;9.820;2023-02-28T01:08:33;-0.10;99.90
8872;DHT22;4472;52.092;9.820;2023-02-28T01:11:20;-0.10;99.90
8872;DHT22;4472;52.092;9.820;2023-02-28T01:14:09;-0.20;99.90
8872;DHT22;4472;52.092;9.820;2023-02-28T01:16:58;-0.20;99.90
8872;DHT22;4472;52.092;9.820;2023-02-28T01:19:46;-0.30;99.90
8872;DHT22;4472;52.092;9.820;2023-02-28T01:22:34;-0.20;99.90
8872;DHT22;4472;52.092;9.820;2023-02-28T01:25:21;-0.30;99.90
8872;DHT22;4472;52.092;9.820;2023-02-28T01:28:09;-0.40;99.90
8872;DHT22;4472;52.092;9.820;2023-02-28T01:30:56;-0.40;99.90
8872;DHT22;4472;52.092;9.820;2023-02-28T01:33:43;-0.30;99.90
8872;DHT22;4472;52.092;9.820;2023-02-28T01:36:32;-0.50;99.90
8872;DHT22;4472;52.092;9.820;2023-02-28T01:39:19;-0.50;99.90
8872;DHT22;4472;52.092;9.820;2023-02-28T01:42:08;-0.60;99.90
8872;DHT22;4472;52.092;9.820;2023-02-28T01:45:03;-0.70;99.90
8872;DHT22;4472;52.092;9.820;2023-02-28T01:47:52;-0.80;99.90
8872;DHT22;4472;52.092;9.820;2023-02-28T01:50:43;-0.90;99.90
8872;DHT22;4472;52.092;9.820;2023-02-28T01:53:36;-0.90;99.90
8872;DHT22;4472;52.092;9.820;2023-02-28T01:56:26;-0.90;99.90
8872;DHT22;4472;52.092;9.820;2023-02-28T01:59:21;-1.00;99.90
8872;DHT22;4472;52.092;9.820;2023-02-28T02:02:10;-0.70;99.90
8872;DHT22;4472;52.092;9.820;2023-02-28T02:05:03;-1.00;99.90
8872;DHT22;4472;52.092;9.820;2023-02-28T02:07:54;-1.10;99.90
8872;DHT22;4472;52.092;9.820;2023-02-28T02:10:44;-1.00;99.90
8872;DHT22;4472;52.092;9.820;2023-02-28T02:13:49;-1.10;99.90
8872;DHT22;4472;52.092;9.820;2023-02-28T02:16:51;-1.20;99.90
8872;DHT22;4472;52.092;9.820;2023-02-28T02:20:06;-1.30;99.90
8872;DHT22;4472;52.092;9.820;2023-02-28T02:23:13;-1.30;99.90
8872;DHT22;4472;52.092;9.820;2023-02-28T02:26:28;-1.30;99.90
8872;DHT22;4472;52.092;9.820;2023-02-28T02:29:36;-1.30;99.90
8872;DHT22;4472;52.092;9.820;2023-02-28T02:32:46;-1.40;99.90
8872;DHT22;4472;52.092;9.820;2023-02-28T02:35:40;-1.40;99.90
8872;DHT22;4472;52.092;9.820;2023-02-28T02:38:34;-1.50;99.90
8872;DHT22;4472;52.092;9.820;2023-02-28T02:44:17;-1.50;99.90
8872;DHT22;4472;52.092;9.820;2023-02-28T02:47:09;-1.60;99.90
8872;DHT22;4472;52.092;9.820;2023-02-28T02:49:59;-1.60;99.90
8872;DHT22;4472;52.092;9.820;2023-02-28T02:52:56;-1.60;99.90
8872;DHT22;4472;52.092;9.820;2023-02-28T02:55:47;-1.80;99.90
8872;DHT22;4472;52.092;9.820;2023-02-28T02:58:41;-1.70;99.90
8872;DHT22;4472;52.092;9.820;2023-02-28T03:01:31;-1.70;99.90
8872;DHT22;4472;52.092;9.820;2023-02-28T03:04:20;-1.70;99.90
8872;DHT22;4472;52.092;9.820;2023-02-28T03:07:08;-1.70;99.90
8872;DHT22;4472;52.092;9.820;2023-02-28T03:09:57;-1.80;99.90
8872;DHT22;4472;52.092;9.820;2023-02-28T03:12:49;-1.20;99.90
8872;DHT22;4472;52.092;9.820;2023-02-28T03:15:49;-1.30;99.90
8872;DHT22;4472;52.092;9.820;2023-02-28T03:18:45;-2.00;99.90
8872;DHT22;4472;52.092;9.820;2023-02-28T03:21:39;-1.50;99.90
8872;DHT22;4472;52.092;9.820;2023-02-28T03:24:31;-1.50;99.90
8872;DHT22;4472;52.092;9.820;2023-02-28T03:27:24;-1.40;99.90
8872;DHT22;4472;52.092;9.820;2023-02-28T03:30:18;-1.40;99.90
8872;DHT22;4472;52.092;9.820;2023-02-28T03:33:13;-1.40;99.90
8872;DHT22;4472;52.092;9.820;2023-02-28T03:36:04;-1.30;99.90
8872;DHT22;4472;52.092;9.820;2023-02-28T03:38:56;-1.20;99.90
8872;DHT22;4472;52.092;9.820;2023-02-28T03:44:40;-1.20;99.90
8872;DHT22;4472;52.092;9.820;2023-02-28T03:47:32;-1.40;99.90
8872;DHT22;4472;52.092;9.820;2023-02-28T03:50:24;-1.30;99.90
8872;DHT22;4472;52.092;9.820;2023-02-28T03:53:13;-1.20;99.90
8872;DHT22;4472;52.092;9.820;2023-02-28T03:56:05;-1.40;99.90
8872;DHT22;4472;52.092;9.820;2023-02-28T03:58:57;-1.10;99.90
8872;DHT22;4472;52.092;9.820;2023-02-28T04:01:49;-1.50;99.90
8872;DHT22;4472;52.092;9.820;2023-02-28T04:04:37;-1.50;99.90
8872;DHT22;4472;52.092;9.820;2023-02-28T04:07:24;-1.10;99.90
8872;DHT22;4472;52.092;9.820;2023-02-28T04:10:12;-1.60;99.90
8872;DHT22;4472;52.092;9.820;2023-02-28T04:12:59;-1.80;99.90
8872;DHT22;4472;52.092;9.820;2023-02-28T04:15:46;-1.80;99.90
8872;DHT22;4472;52.092;9.820;2023-02-28T04:18:35;-1.90;99.90
8872;DHT22;4472;52.092;9.820;2023-02-28T04:21:22;-1.90;99.90
8872;DHT22;4472;52.092;9.820;2023-02-28T04:24:12;-2.10;99.90
8872;DHT22;4472;52.092;9.820;2023-02-28T04:27:00;-2.10;99.90
8872;DHT22;4472;52.092;9.820;2023-02-28T04:29:47;-2.00;99.90
8872;DHT22;4472;52.092;9.820;2023-02-28T04:32:34;-2.10;99.90
8872;DHT22;4472;52.092;9.820;2023-02-28T04:35:23;-2.20;99.90
8872;DHT22;4472;52.092;9.820;2023-02-28T04:38:10;-2.10;99.90
8872;DHT22;4472;52.092;9.820;2023-02-28T04:40:57;-2.10;99.90
8872;DHT22;4472;52.092;9.820;2023-02-28T04:43:45;-2.00;99.90
8872;DHT22;4472;52.092;9.820;2023-02-28T04:46:32;-2.10;99.90
8872;DHT22;4472;52.092;9.820;2023-02-28T04:49:19;-2.10;99.90
8872;DHT22;4472;52.092;9.820;2023-02-28T04:52:08;-2.10;99.90
8872;DHT22;4472;52.092;9.820;2023-02-28T04:54:56;-2.10;99.90
8872;DHT22;4472;52.092;9.820;2023-02-28T04:57:43;-2.00;99.90
8872;DHT22;4472;52.092;9.820;2023-02-28T05:00:30;-1.90;99.90
8872;DHT22;4472;52.092;9.820;2023-02-28T05:03:17;-1.90;99.90
8872;DHT22;4472;52.092;9.820;2023-02-28T05:06:05;-1.90;99.90
8872;DHT22;4472;52.092;9.820;2023-02-28T05:08:53;-1.80;99.90
8872;DHT22;4472;52.092;9.820;2023-02-28T05:11:41;-0.40;99.90
8872;DHT22;4472;52.092;9.820;2023-02-28T05:14:28;-1.70;99.90
8872;DHT22;4472;52.092;9.820;2023-02-28T05:17:16;-1.80;99.90
8872;DHT22;4472;52.092;9.820;2023-02-28T05:22:51;-1.60;99.90
8872;DHT22;4472;52.092;9.820;2023-02-28T05:25:40;-1.70;99.90
8872;DHT22;4472;52.092;9.820;2023-02-28T05:28:28;-1.60;99.90
8872;DHT22;4472;52.092;9.820;2023-02-28T05:31:15;-1.60;99.90
8872;DHT22;4472;52.092;9.820;2023-02-28T05:34:02;-1.60;99.90
8872;DHT22;4472;52.092;9.820;2023-02-28T05:36:50;-1.60;99.90
8872;DHT22;4472;52.092;9.820;2023-02-28T05:39:37;-1.60;99.90
8872;DHT22;4472;52.092;9.820;2023-02-28T05:42:26;-1.60;99.90
8872;DHT22;4472;52.092;9.820;2023-02-28T05:45:13;-1.60;99.90
8872;DHT22;4472;52.092;9.820;2023-02-28T05:48:01;-1.70;99.90
8872;DHT22;4472;52.092;9.820;2023-02-28T05:50:48;-1.70;99.90
8872;DHT22;4472;52.092;9.820;2023-02-28T05:53:35;-1.80;99.90
8872;DHT22;4472;52.092;9.820;2023-02-28T05:56:22;-1.90;99.90
8872;DHT22;4472;52.092;9.820;2023-02-28T05:59:11;-1.90;99.90
8872;DHT22;4472;52.092;9.820;2023-02-28T06:01:58;-2.00;99.90
8872;DHT22;4472;52.092;9.820;2023-02-28T06:04:45;-2.00;99.90
8872;DHT22;4472;52.092;9.820;2023-02-28T06:07:33;-2.10;99.90
8872;DHT22;4472;52.092;9.820;2023-02-28T06:10:20;-2.10;99.90
8872;DHT22;4472;52.092;9.820;2023-02-28T06:13:07;-2.20;99.90
8872;DHT22;4472;52.092;9.820;2023-02-28T06:15:56;-2.30;99.90
8872;DHT22;4472;52.092;9.820;2023-02-28T06:18:43;-2.30;99.90
8872;DHT22;4472;52.092;9.820;2023-02-28T06:21:31;-2.40;99.90
8872;DHT22;4472;52.092;9.820;2023-02-28T06:24:26;-2.30;99.90
8872;DHT22;4472;52.092;9.820;2023-02-28T06:27:14;-2.30;99.90
8872;DHT22;4472;52.092;9.820;2023-02-28T06:30:01;-2.30;99.90
8872;DHT22;4472;52.092;9.820;2023-02-28T06:32:50;-2.30;99.90
8872;DHT22;4472;52.092;9.820;2023-02-28T06:35:37;-2.30;99.90
8872;DHT22;4472;52.092;9.820;2023-02-28T06:38:25;-2.30;99.90
8872;DHT22;4472;52.092;9.820;2023-02-28T06:41:12;-2.40;99.90
8872;DHT22;4472;52.092;9.820;2023-02-28T06:43:59;-2.20;99.90
8872;DHT22;4472;52.092;9.820;2023-02-28T06:46:46;-2.20;99.90
8872;DHT22;4472;52.092;9.820;2023-02-28T06:49:35;-2.10;99.90
8872;DHT22;4472;52.092;9.820;2023-02-28T06:52:23;-2.10;99.90
8872;DHT22;4472;52.092;9.820;2023-02-28T06:55:10;-2.00;99.90
8872;DHT22;4472;52.092;9.820;2023-02-28T07:00:45;-1.90;99.90
8872;DHT22;4472;52.092;9.820;2023-02-28T07:06:22;-1.80;99.90
8872;DHT22;4472;52.092;9.820;2023-02-28T07:09:09;-1.60;99.90
8872;DHT22;4472;52.092;9.820;2023-02-28T07:11:56;-1.60;99.90
8872;DHT22;4472;52.092;9.820;2023-02-28T07:14:43;-3.80;99.90
8872;DHT22;4472;52.092;9.820;2023-02-28T07:17:30;-1.40;99.90
8872;DHT22;4472;52.092;9.820;2023-02-28T07:20:18;-1.30;99.90
8872;DHT22;4472;52.092;9.820;2023-02-28T07:23:06;-1.10;99.90
8872;DHT22;4472;52.092;9.820;2023-02-28T07:25:53;-1.00;99.90
8872;DHT22;4472;52.092;9.820;2023-02-28T07:28:41;-0.80;99.90
8872;DHT22;4472;52.092;9.820;2023-02-28T07:31:29;-0.60;99.90
8872;DHT22;4472;52.092;9.820;2023-02-28T07:34:16;-0.70;99.90
8872;DHT22;4472;52.092;9.820;2023-02-28T07:37:03;-0.60;99.90
8872;DHT22;4472;52.092;9.820;2023-02-28T07:39:52;-0.40;99.90
8872;DHT22;4472;52.092;9.820;2023-02-28T07:42:40;-0.50;99.90
8872;DHT22;4472;52.092;9.820;2023-02-28T07:45:27;0.20;99.90
8872;DHT22;4472;52.092;9.820;2023-02-28T07:48:15;0.10;99.90
8872;DHT22;4472;52.092;9.820;2023-02-28T07:51:03;0.10;99.90
8872;DHT22;4472;52.092;9.820;2023-02-28T07:53:50;0.20;99.90
8872;DHT22;4472;52.092;9.820;2023-02-28T07:56:38;0.20;99.90
8872;DHT22;4472;52.092;9.820;2023-02-28T07:59:26;0.80;99.90
8872;DHT22;4472;52.092;9.820;2023-02-28T08:02:14;0.10;99.90
8872;DHT22;4472;52.092;9.820;2023-02-28T08:05:01;0.10;99.90
8872;DHT22;4472;52.092;9.820;2023-02-28T08:07:49;0.10;99.90
8872;DHT22;4472;52.092;9.820;2023-02-28T08:10:36;0.20;99.90
8872;DHT22;4472;52.092;9.820;2023-02-28T08:13:25;0.20;99.90
8872;DHT22;4472;52.092;9.820;2023-02-28T08:16:13;0.60;99.90
8872;DHT22;4472;52.092;9.820;2023-02-28T08:19:03;0.40;99.90
8872;DHT22;4472;52.092;9.820;2023-02-28T08:21:50;0.80;99.90
8872;DHT22;4472;52.092;9.820;2023-02-28T08:24:37;0.50;99.90
8872;DHT22;4472;52.092;9.820;2023-02-28T08:27:24;0.60;99.90
8872;DHT22;4472;52.092;9.820;2023-02-28T08:30:14;0.60;99.90
8872;DHT22;4472;52.092;9.820;2023-02-28T08:33:01;0.60;99.90
8872;DHT22;4472;52.092;9.820;2023-02-28T08:35:51;0.80;99.90
8872;DHT22;4472;52.092;9.820;2023-02-28T08:38:38;0.80;99.90
8872;DHT22;4472;52.092;9.820;2023-02-28T08:41:26;1.00;99.90
8872;DHT22;4472;52.092;9.820;2023-02-28T08:44:13;1.20;99.90
8872;DHT22;4472;52.092;9.820;2023-02-28T08:47:02;1.40;99.90
8872;DHT22;4472;52.092;9.820;2023-02-28T08:49:49;1.30;99.90
8872;DHT22;4472;52.092;9.820;2023-02-28T08:52:36;1.30;99.90
8872;DHT22;4472;52.092;9.820;2023-02-28T08:55:24;1.30;99.90
8872;DHT22;4472;52.092;9.820;2023-02-28T08:58:11;1.40;99.90
8872;DHT22;4472;52.092;9.820;2023-02-28T09:00:58;1.50;99.90
8872;DHT22;4472;52.092;9.820;2023-02-28T09:03:48;1.60;99.90
8872;DHT22;4472;52.092;9.820;2023-02-28T09:06:35;1.90;99.90
8872;DHT22;4472;52.092;9.820;2023-02-28T09:09:23;1.70;99.90
8872;DHT22;4472;52.092;9.820;2023-02-28T09:12:10;1.60;99.90
8872;DHT22;4472;52.092;9.820;2023-02-28T09:14:57;1.80;99.90
8872;DHT22;4472;52.092;9.820;2023-02-28T09:17:44;2.00;99.90
8872;DHT22;4472;52.092;9.820;2023-02-28T09:20:33;2.00;99.90
8872;DHT22;4472;52.092;9.820;2023-02-28T09:23:20;2.20;99.90
8872;DHT22;4472;52.092;9.820;2023-02-28T09:26:08;2.30;99.90
8872;DHT22;4472;52.092;9.820;2023-02-28T09:28:59;2.50;99.90
8872;DHT22;4472;52.092;9.820;2023-02-28T09:31:46;2.70;99.90
8872;DHT22;4472;52.092;9.820;2023-02-28T09:34:33;2.70;99.90
8872;DHT22;4472;52.092;9.820;2023-02-28T09:37:23;2.90;99.90
8872;DHT22;4472;52.092;9.820;2023-02-28T09:40:17;3.10;99.90
8872;DHT22;4472;52.092;9.820;2023-02-28T09:43:05;3.40;99.90
8872;DHT22;4472;52.092;9.820;2023-02-28T09:45:55;3.60;99.90
8872;DHT22;4472;52.092;9.820;2023-02-28T09:48:47;3.80;99.90
8872;DHT22;4472;52.092;9.820;2023-02-28T09:51:43;3.90;99.90
8872;DHT22;4472;52.092;9.820;2023-02-28T09:54:33;3.90;99.90
8872;DHT22;4472;52.092;9.820;2023-02-28T09:57:29;3.90;99.90
8872;DHT22;4472;52.092;9.820;2023-02-28T10:00:21;4.00;99.90
8872;DHT22;4472;52.092;9.820;2023-02-28T10:03:28;4.10;99.90
8872;DHT22;4472;52.092;9.820;2023-02-28T10:06:18;4.20;99.90
8872;DHT22;4472;52.092;9.820;2023-02-28T10:09:10;4.30;99.90
8872;DHT22;4472;52.092;9.820;2023-02-28T10:12:04;4.30;99.90
8872;DHT22;4472;52.092;9.820;2023-02-28T10:14:54;4.30;99.90
8872;DHT22;4472;52.092;9.820;2023-02-28T10:17:44;4.40;99.90
8872;DHT22;4472;52.092;9.820;2023-02-28T10:20:33;4.40;99.80
8872;DHT22;4472;52.092;9.820;2023-02-28T10:23:25;4.40;98.40
8872;DHT22;4472;52.092;9.820;2023-02-28T10:26:14;4.50;98.50
8872;DHT22;4472;52.092;9.820;2023-02-28T10:29:04;4.30;97.10
8872;DHT22;4472;52.092;9.820;2023-02-28T10:31:51;4.60;99.90
8872;DHT22;4472;52.092;9.820;2023-02-28T10:34:38;4.50;99.90
8872;DHT22;4472;52.092;9.820;2023-02-28T10:37:25;4.60;99.90
8872;DHT22;4472;52.092;9.820;2023-02-28T10:40:27;4.60;99.10
8872;DHT22;4472;52.092;9.820;2023-02-28T10:43:22;4.70;98.50
8872;DHT22;4472;52.092;9.820;2023-02-28T10:46:15;4.60;96.50
8872;DHT22;4472;52.092;9.820;2023-02-28T10:49:14;4.60;96.80
8872;DHT22;4472;52.092;9.820;2023-02-28T10:52:03;4.70;97.60
8872;DHT22;4472;52.092;9.820;2023-02-28T10:55:13;4.80;97.80
8872;DHT22;4472;52.092;9.820;2023-02-28T10:58:00;4.70;97.70
8872;DHT22;4472;52.092;9.820;2023-02-28T11:00:48;4.60;95.80
8872;DHT22;4472;52.092;9.820;2023-02-28T11:03:36;4.60;94.10
8872;DHT22;4472;52.092;9.820;2023-02-28T11:06:26;4.50;95.00
8872;DHT22;4472;52.092;9.820;2023-02-28T11:09:22;4.60;94.00
8872;DHT22;4472;52.092;9.820;2023-02-28T11:12:20;4.90;93.20
8872;DHT22;4472;52.092;9.820;2023-02-28T11:15:22;4.90;94.20
8872;DHT22;4472;52.092;9.820;2023-02-28T11:18:21;5.10;92.80
8872;DHT22;4472;52.092;9.820;2023-02-28T11:21:16;5.00;92.10
8872;DHT22;4472;52.092;9.820;2023-02-28T11:24:14;5.00;92.00
8872;DHT22;4472;52.092;9.820;2023-02-28T11:27:04;5.10;92.20
8872;DHT22;4472;52.092;9.820;2023-02-28T11:29:51;5.10;92.60
8872;DHT22;4472;52.092;9.820;2023-02-28T11:32:48;5.10;91.90
8872;DHT22;4472;52.092;9.820;2023-02-28T11:35:38;5.00;90.90
8872;DHT22;4472;52.092;9.820;2023-02-28T11:38:27;5.10;92.20
8872;DHT22;4472;52.092;9.820;2023-02-28T11:44:53;5.70;92.50
8872;DHT22;4472;52.092;9.820;2023-02-28T11:47:48;5.70;91.40
8872;DHT22;4472;52.092;9.820;2023-02-28T11:50:54;5.80;91.80
8872;DHT22;4472;52.092;9.820;2023-02-28T11:53:59;6.00;94.80
8872;DHT22;4472;52.092;9.820;2023-02-28T11:56:53;6.20;90.80
8872;DHT22;4472;52.092;9.820;2023-02-28T11:59:51;6.20;89.80
8872;DHT22;4472;52.092;9.820;2023-02-28T12:02:54;6.30;86.70
8872;DHT22;4472;52.092;9.820;2023-02-28T12:05:45;6.30;87.90
8872;DHT22;4472;52.092;9.820;2023-02-28T12:08:44;6.40;86.90
8872;DHT22;4472;52.092;9.820;2023-02-28T12:11:43;6.30;86.10
8872;DHT22;4472;52.092;9.820;2023-02-28T12:14:54;6.10;83.50
8872;DHT22;4472;52.092;9.820;2023-02-28T12:18:00;6.00;86.00
8872;DHT22;4472;52.092;9.820;2023-02-28T12:20:53;6.10;87.90
8872;DHT22;4472;52.092;9.820;2023-02-28T12:24:03;6.10;87.20
8872;DHT22;4472;52.092;9.820;2023-02-28T12:26:57;6.10;87.30
8872;DHT22;4472;52.092;9.820;2023-02-28T12:29:49;6.00;85.20
8872;DHT22;4472;52.092;9.820;2023-02-28T12:32:39;6.20;88.00
8872;DHT22;4472;52.092;9.820;2023-02-28T12:35:33;6.50;88.00
8872;DHT22;4472;52.092;9.820;2023-02-28T12:38:25;6.30;86.90
8872;DHT22;4472;52.092;9.820;2023-02-28T12:41:17;6.30;85.20
8872;DHT22;4472;52.092;9.820;2023-02-28T12:44:09;6.30;84.10
8872;DHT22;4472;52.092;9.820;2023-02-28T12:47:02;6.30;83.50
8872;DHT22;4472;52.092;9.820;2023-02-28T12:49:53;6.20;83.80
8872;DHT22;4472;52.092;9.820;2023-02-28T12:52:48;6.20;83.40
8872;DHT22;4472;52.092;9.820;2023-02-28T12:55:41;6.10;82.90
8872;DHT22;4472;52.092;9.820;2023-02-28T12:58:35;6.20;83.20
8872;DHT22;4472;52.092;9.820;2023-02-28T13:01:42;6.10;79.40
8872;DHT22;4472;52.092;9.820;2023-02-28T13:05:12;6.10;83.00
8872;DHT22;4472;52.092;9.820;2023-02-28T13:08:15;6.00;80.50
8872;DHT22;4472;52.092;9.820;2023-02-28T13:11:05;5.90;82.90
8872;DHT22;4472;52.092;9.820;2023-02-28T13:13:58;6.00;82.60
8872;DHT22;4472;52.092;9.820;2023-02-28T13:16:56;6.00;88.60
8872;DHT22;4472;52.092;9.820;2023-02-28T13:19:45;6.80;89.40
8872;DHT22;4472;52.092;9.820;2023-02-28T13:22:40;6.00;84.30
8872;DHT22;4472;52.092;9.820;2023-02-28T13:25:51;6.20;85.20
8872;DHT22;4472;52.092;9.820;2023-02-28T13:35:43;6.20;95.20
8872;DHT22;4472;52.092;9.820;2023-02-28T13:38:37;6.10;92.00
8872;DHT22;4472;52.092;9.820;2023-02-28T13:44:28;5.90;91.90
8872;DHT22;4472;52.092;9.820;2023-02-28T13:47:34;5.90;92.90
8872;DHT22;4472;52.092;9.820;2023-02-28T13:50:27;5.90;94.40
8872;DHT22;4472;52.092;9.820;2023-02-28T13:53:39;5.90;81.10
8872;DHT22;4472;52.092;9.820;2023-02-28T13:56:41;5.90;81.90
8872;DHT22;4472;52.092;9.820;2023-02-28T13:59:38;5.90;81.20
8872;DHT22;4472;52.092;9.820;2023-02-28T14:06:08;5.80;81.70
8872;DHT22;4472;52.092;9.820;2023-02-28T14:08:59;5.80;81.00
8872;DHT22;4472;52.092;9.820;2023-02-28T14:11:49;5.80;79.80
8872;DHT22;4472;52.092;9.820;2023-02-28T14:14:55;5.80;80.60
8872;DHT22;4472;52.092;9.820;2023-02-28T14:17:43;5.80;80.40
8872;DHT22;4472;52.092;9.820;2023-02-28T14:20:32;5.80;79.70
8872;DHT22;4472;52.092;9.820;2023-02-28T14:23:33;5.70;79.90
8872;DHT22;4472;52.092;9.820;2023-02-28T14:26:32;5.80;80.10
8872;DHT22;4472;52.092;9.820;2023-02-28T14:29:45;5.80;80.40
8872;DHT22;4472;52.092;9.820;2023-02-28T14:32:45;5.80;79.20
8872;DHT22;4472;52.092;9.820;2023-02-28T14:35:50;5.80;80.70
8872;DHT22;4472;52.092;9.820;2023-02-28T14:38:44;5.80;80.40
8872;DHT22;4472;52.092;9.820;2023-02-28T14:41:34;5.70;78.90
8872;DHT22;4472;52.092;9.820;2023-02-28T14:44:24;5.70;80.50
8872;DHT22;4472;52.092;9.820;2023-02-28T14:47:14;5.40;78.90
8872;DHT22;4472;52.092;9.820;2023-02-28T14:50:04;5.70;78.70
8872;DHT22;4472;52.092;9.820;2023-02-28T14:52:52;5.70;80.70
8872;DHT22;4472;52.092;9.820;2023-02-28T14:55:45;5.70;80.70
8872;DHT22;4472;52.092;9.820;2023-02-28T14:58:33;5.70;81.10
8872;DHT22;4472;52.092;9.820;2023-02-28T15:01:23;5.70;81.40
8872;DHT22;4472;52.092;9.820;2023-02-28T15:04:18;5.70;79.80
8872;DHT22;4472;52.092;9.820;2023-02-28T15:07:08;5.60;77.90
8872;DHT22;4472;52.092;9.820;2023-02-28T15:10:11;5.60;80.70
8872;DHT22;4472;52.092;9.820;2023-02-28T15:13:04;5.60;79.60
8872;DHT22;4472;52.092;9.820;2023-02-28T15:15:55;5.50;79.70
8872;DHT22;4472;52.092;9.820;2023-02-28T15:18:47;5.60;79.50
8872;DHT22;4472;52.092;9.820;2023-02-28T15:21:37;5.50;79.90
8872;DHT22;4472;52.092;9.820;2023-02-28T15:24:32;5.60;81.40
8872;DHT22;4472;52.092;9.820;2023-02-28T15:27:24;5.60;80.50
8872;DHT22;4472;52.092;9.820;2023-02-28T15:30:17;5.50;81.60
8872;DHT22;4472;52.092;9.820;2023-02-28T15:33:17;5.60;81.20
8872;DHT22;4472;52.092;9.820;2023-02-28T15:36:10;5.50;81.00
8872;DHT22;4472;52.092;9.820;2023-02-28T15:38:58;5.40;79.50
8872;DHT22;4472;52.092;9.820;2023-02-28T15:41:46;5.40;80.20
8872;DHT22;4472;52.092;9.820;2023-02-28T15:44:34;5.30;82.50
8872;DHT22;4472;52.092;9.820;2023-02-28T15:47:24;5.30;82.60
8872;DHT22;4472;52.092;9.820;2023-02-28T15:50:14;5.30;82.40
8872;DHT22;4472;52.092;9.820;2023-02-28T15:53:01;5.20;82.50
8872;DHT22;4472;52.092;9.820;2023-02-28T15:56:00;5.20;83.00
8872;DHT22;4472;52.092;9.820;2023-02-28T15:58:48;5.10;83.10
8872;DHT22;4472;52.092;9.820;2023-02-28T16:01:37;5.00;82.30
8872;DHT22;4472;52.092;9.820;2023-02-28T16:04:26;4.90;82.10
8872;DHT22;4472;52.092;9.820;2023-02-28T16:07:17;4.90;81.40
8872;DHT22;4472;52.092;9.820;2023-02-28T16:10:05;4.90;81.50
8872;DHT22;4472;52.092;9.820;2023-02-28T16:12:54;4.80;82.80
8872;DHT22;4472;52.092;9.820;2023-02-28T16:15:42;4.80;83.30
8872;DHT22;4472;52.092;9.820;2023-02-28T16:18:30;4.70;84.90
8872;DHT22;4472;52.092;9.820;2023-02-28T16:21:19;4.60;85.10
8872;DHT22;4472;52.092;9.820;2023-02-28T16:24:06;4.60;84.80
8872;DHT22;4472;52.092;9.820;2023-02-28T16:26:54;4.50;84.20
8872;DHT22;4472;52.092;9.820;2023-02-28T16:29:43;4.50;85.70
8872;DHT22;4472;52.092;9.820;2023-02-28T16:32:32;4.40;84.30
8872;DHT22;4472;52.092;9.820;2023-02-28T16:35:21;4.40;85.10
8872;DHT22;4472;52.092;9.820;2023-02-28T16:38:10;4.30;84.30
8872;DHT22;4472;52.092;9.820;2023-02-28T16:40:59;4.30;85.10
8872;DHT22;4472;52.092;9.820;2023-02-28T16:43:49;4.00;84.40
8872;DHT22;4472;52.092;9.820;2023-02-28T16:46:36;4.20;85.70
8872;DHT22;4472;52.092;9.820;2023-02-28T16:49:23;4.20;85.60
8872;DHT22;4472;52.092;9.820;2023-02-28T16:52:11;4.10;87.90
8872;DHT22;4472;52.092;9.820;2023-02-28T16:54:59;4.00;87.80
8872;DHT22;4472;52.092;9.820;2023-02-28T16:57:51;3.80;90.50
8872;DHT22;4472;52.092;9.820;2023-02-28T17:00:39;3.70;89.40
8872;DHT22;4472;52.092;9.820;2023-02-28T17:03:27;3.60;89.50
8872;DHT22;4472;52.092;9.820;2023-02-28T17:06:18;3.50;88.10
8872;DHT22;4472;52.092;9.820;2023-02-28T17:09:09;3.30;91.20
8872;DHT22;4472;52.092;9.820;2023-02-28T17:12:02;3.20;91.60
8872;DHT22;4472;52.092;9.820;2023-02-28T17:14:50;3.10;91.70
8872;DHT22;4472;52.092;9.820;2023-02-28T17:17:37;2.90;91.90
8872;DHT22;4472;52.092;9.820;2023-02-28T17:20:24;2.70;92.40
8872;DHT22;4472;52.092;9.820;2023-02-28T17:23:12;2.60;93.20
8872;DHT22;4472;52.092;9.820;2023-02-28T17:25:59;2.30;93.80
8872;DHT22;4472;52.092;9.820;2023-02-28T17:28:48;2.40;94.60
8872;DHT22;4472;52.092;9.820;2023-02-28T17:31:36;2.10;92.50
8872;DHT22;4472;52.092;9.820;2023-02-28T17:34:24;2.10;92.90
8872;DHT22;4472;52.092;9.820;2023-02-28T17:37:11;1.80;93.00
8872;DHT22;4472;52.092;9.820;2023-02-28T17:39:58;1.90;93.40
8872;DHT22;4472;52.092;9.820;2023-02-28T17:42:45;1.60;93.70
8872;DHT22;4472;52.092;9.820;2023-02-28T17:45:34;1.50;94.50
8872;DHT22;4472;52.092;9.820;2023-02-28T17:48:22;1.40;94.80
8872;DHT22;4472;52.092;9.820;2023-02-28T17:51:12;1.20;95.60
8872;DHT22;4472;52.092;9.820;2023-02-28T17:53:59;1.10;96.40
8872;DHT22;4472;52.092;9.820;2023-02-28T17:56:46;0.90;96.90
8872;DHT22;4472;52.092;9.820;2023-02-28T17:59:33;1.00;97.00
8872;DHT22;4472;52.092;9.820;2023-02-28T18:02:22;0.80;97.30
8872;DHT22;4472;52.092;9.820;2023-02-28T18:05:10;0.70;97.20
8872;DHT22;4472;52.092;9.820;2023-02-28T18:07:57;0.60;97.40
8872;DHT22;4472;52.092;9.820;2023-02-28T18:10:45;0.50;98.20
8872;DHT22;4472;52.092;9.820;2023-02-28T18:13:33;0.40;98.20
8872;DHT22;4472;52.092;9.820;2023-02-28T18:16:20;0.70;99.60
8872;DHT22;4472;52.092;9.820;2023-02-28T18:19:09;0.40;99.90
8872;DHT22;4472;52.092;9.820;2023-02-28T18:22:00;0.60;99.90
8872;DHT22;4472;52.092;9.820;2023-02-28T18:24:47;0.40;99.90
8872;DHT22;4472;52.092;9.820;2023-02-28T18:27:35;0.50;99.90
8872;DHT22;4472;52.092;9.820;2023-02-28T18:30:24;0.40;99.90
8872;DHT22;4472;52.092;9.820;2023-02-28T18:33:11;0.40;99.90
8872;DHT22;4472;52.092;9.820;2023-02-28T18:36:00;0.60;99.90
8872;DHT22;4472;52.092;9.820;2023-02-28T18:38:48;0.40;99.90
8872;DHT22;4472;52.092;9.820;2023-02-28T18:44:23;0.20;99.90
8872;DHT22;4472;52.092;9.820;2023-02-28T18:49:58;0.20;99.90
8872;DHT22;4472;52.092;9.820;2023-02-28T18:52:47;0.30;99.90
8872;DHT22;4472;52.092;9.820;2023-02-28T18:55:34;0.10;99.90
8872;DHT22;4472;52.092;9.820;2023-02-28T18:58:21;0.10;99.90
8872;DHT22;4472;52.092;9.820;2023-02-28T19:01:14;0.30;99.90
8872;DHT22;4472;52.092;9.820;2023-02-28T19:04:03;0.00;99.90
8872;DHT22;4472;52.092;9.820;2023-02-28T19:06:51;0.00;99.90
8872;DHT22;4472;52.092;9.820;2023-02-28T19:09:39;0.00;99.90
8872;DHT22;4472;52.092;9.820;2023-02-28T19:12:26;-0.30;99.90
8872;DHT22;4472;52.092;9.820;2023-02-28T19:15:14;-0.20;99.90
8872;DHT22;4472;52.092;9.820;2023-02-28T19:18:01;-0.10;99.90
8872;DHT22;4472;52.092;9.820;2023-02-28T19:20:48;-0.10;99.90
8872;DHT22;4472;52.092;9.820;2023-02-28T19:23:36;-0.20;99.90